createdAt,value
2018-12-23T00:02:00.061Z,94520.70
2018-12-23T00:04:27.684Z,94530.00
2018-12-23T00:06:55.405Z,94527.44
2018-12-23T00:09:23.189Z,94528.08
2018-12-23T00:11:52.646Z,94524.23
2018-12-23T00:14:20.302Z,94514.61
2018-12-23T00:16:47.962Z,94513.81
2018-12-23T00:19:15.586Z,94508.68
2018-12-23T00:21:45.335Z,94508.84
2018-12-23T00:24:12.977Z,94499.06
2018-12-23T00:26:42.652Z,94509.32
2018-12-23T00:29:10.310Z,94510.45
2018-12-23T00:31:37.960Z,94524.23
2018-12-23T00:34:06.355Z,94518.33
2018-12-23T00:36:34.121Z,94505.31
2018-12-23T00:39:01.845Z,94525.19
2018-12-23T00:41:29.718Z,94515.09
2018-12-23T00:43:57.467Z,94524.39
2018-12-23T00:46:25.138Z,94533.36
2018-12-23T00:48:53.208Z,94539.16
2018-12-23T00:51:21.194Z,94539.00
2018-12-23T00:53:49.820Z,94555.97
2018-12-23T00:56:17.415Z,94550.06
2018-12-23T00:58:46.772Z,94555.98
2018-12-23T01:01:14.424Z,94561.13
2018-12-23T01:03:42.047Z,94567.21
2018-12-23T01:06:10.016Z,94564.15
2018-12-23T01:08:37.960Z,94550.55
2018-12-23T01:11:05.653Z,94545.55
2018-12-23T01:13:34.540Z,94544.27
2018-12-23T01:16:02.404Z,94543.47
2018-12-23T01:18:31.100Z,94540.29
2018-12-23T01:20:58.960Z,94548.30
2018-12-23T01:23:28.147Z,94538.04
2018-12-23T01:25:55.820Z,94554.39
2018-12-23T01:28:23.686Z,94557.27
2018-12-23T01:30:51.590Z,94562.06
2018-12-23T01:33:20.235Z,94563.03
2018-12-23T01:35:47.802Z,94564.95
2018-12-23T01:38:15.568Z,94564.17
2018-12-23T01:40:43.436Z,94567.21
2018-12-23T01:43:11.299Z,94575.39
2018-12-23T01:45:38.961Z,94593.03
2018-12-23T01:48:06.920Z,94585.80
2018-12-23T01:50:35.931Z,94582.92
2018-12-23T01:53:03.711Z,94570.09
2018-12-23T01:55:31.364Z,94593.33
2018-12-23T01:57:59.082Z,94588.06
2018-12-23T02:00:26.687Z,94583.88
2018-12-23T02:02:55.047Z,94577.61
2018-12-23T02:05:22.989Z,94593.19
2018-12-23T02:07:50.610Z,94599.91
2018-12-23T02:10:18.556Z,94595.10
2018-12-23T02:12:46.314Z,94589.50
2018-12-23T02:15:13.912Z,94591.89
2018-12-23T02:17:41.546Z,94598.77
2018-12-23T02:20:09.233Z,94605.03
2018-12-23T02:22:36.808Z,94612.40
2018-12-23T02:25:05.050Z,94615.91
2018-12-23T02:27:33.065Z,94623.30
2018-12-23T02:30:00.853Z,94624.91
2018-12-23T02:32:29.294Z,94619.13
2018-12-23T02:34:57.925Z,94622.67
2018-12-23T02:37:28.573Z,94627.98
2018-12-23T02:39:56.230Z,94639.34
2018-12-23T02:42:24.102Z,94640.95
2018-12-23T02:44:51.682Z,94636.45
2018-12-23T02:47:19.645Z,94642.87
2018-12-23T02:49:47.299Z,94630.05
2018-12-23T02:52:17.115Z,94634.22
2018-12-23T02:54:44.724Z,94631.81
2018-12-23T02:57:13.462Z,94630.20
2018-12-23T02:59:41.220Z,94629.08
2018-12-23T03:02:09.598Z,94643.17
2018-12-23T03:04:37.249Z,94648.45
2018-12-23T03:07:04.910Z,94664.34
2018-12-23T03:09:32.691Z,94660.03
2018-12-23T03:12:00.557Z,94661.47
2018-12-23T03:14:32.628Z,94657.94
2018-12-23T03:17:00.592Z,94657.45
2018-12-23T03:19:28.358Z,94658.42
2018-12-23T03:21:56.027Z,94668.52
2018-12-23T03:24:23.656Z,94667.56
2018-12-23T03:26:51.318Z,94665.96
2018-12-23T03:29:19.115Z,94678.12
2018-12-23T03:31:47.510Z,94679.41
2018-12-23T03:34:15.082Z,94680.69
2018-12-23T03:36:42.710Z,94688.98
2018-12-23T03:39:12.932Z,94687.08
2018-12-23T03:41:40.789Z,94677.97
2018-12-23T03:44:12.320Z,94692.22
2018-12-23T03:46:40.119Z,94685.48
2018-12-23T03:49:08.100Z,94689.98
2018-12-23T03:51:36.160Z,94692.88
2018-12-23T03:54:03.839Z,94692.89
2018-12-23T03:56:31.441Z,94693.81
2018-12-23T03:58:59.142Z,94697.03
2018-12-23T04:01:28.507Z,94689.66
2018-12-23T04:03:56.752Z,94689.48
2018-12-23T04:06:25.133Z,94687.09
2018-12-23T04:08:53.043Z,94675.88
2018-12-23T04:11:20.624Z,94689.81
2018-12-23T04:13:48.261Z,94694.77
2018-12-23T04:16:15.957Z,94697.19
2018-12-23T04:18:43.740Z,94693.97
2018-12-23T04:21:11.405Z,94690.47
2018-12-23T04:23:39.209Z,94683.75
2018-12-23T04:26:06.889Z,94678.60
2018-12-23T04:28:34.525Z,94676.82
2018-12-23T04:31:02.117Z,94693.80
2018-12-23T04:33:29.746Z,94674.89
2018-12-23T04:35:57.310Z,94688.34
2018-12-23T04:38:24.889Z,94717.52
2018-12-23T04:40:52.595Z,94709.48
2018-12-23T04:43:20.564Z,94702.73
2018-12-23T04:45:48.138Z,94701.30
2018-12-23T04:48:15.885Z,94701.92
2018-12-23T04:50:43.632Z,94693.45
2018-12-23T04:53:11.414Z,94704.06
2018-12-23T04:55:38.995Z,94722.50
2018-12-23T04:58:06.903Z,94729.02
2018-12-23T05:00:34.707Z,94727.13
2018-12-23T05:03:02.518Z,94733.25
2018-12-23T05:05:30.168Z,94724.60
2018-12-23T05:07:57.923Z,94716.89
2018-12-23T05:10:25.584Z,94725.86
2018-12-23T05:12:53.434Z,94734.80
2018-12-23T05:15:21.026Z,94743.12
2018-12-23T05:17:49.777Z,94746.98
2018-12-23T05:20:17.649Z,94754.52
2018-12-23T05:22:45.612Z,94751.46
2018-12-23T05:25:13.341Z,94743.75
2018-12-23T05:27:41.124Z,94730.92
2018-12-23T05:30:09.936Z,94728.84
2018-12-23T05:32:37.640Z,94741.67
2018-12-23T05:35:05.412Z,94749.51
2018-12-23T05:37:33.030Z,94745.03
2018-12-23T05:40:01.309Z,94752.08
2018-12-23T05:42:29.166Z,94766.17
2018-12-23T05:44:57.499Z,94760.09
2018-12-23T05:47:25.211Z,94757.35
2018-12-23T05:49:55.898Z,94765.84
2018-12-23T05:52:23.867Z,94760.56
2018-12-23T05:54:51.816Z,94761.70
2018-12-23T05:57:19.528Z,94768.62
2018-12-23T05:59:47.206Z,94784.19
2018-12-23T06:02:15.075Z,94786.40
2018-12-23T06:04:42.691Z,94770.52
2018-12-23T06:07:11.521Z,94765.41
2018-12-23T06:09:39.491Z,94779.49
2018-12-23T06:12:07.503Z,94783.01
2018-12-23T06:14:36.816Z,94775.19
2018-12-23T06:17:04.533Z,94783.19
2018-12-23T06:19:32.321Z,94792.63
2018-12-23T06:22:00.869Z,94793.73
2018-12-23T06:24:29.469Z,94802.09
2018-12-23T06:26:57.222Z,94806.59
2018-12-23T06:29:24.895Z,94806.56
2018-12-23T06:31:52.649Z,94813.45
2018-12-23T06:34:20.311Z,94834.88
2018-12-23T06:36:48.082Z,94833.92
2018-12-23T06:39:15.749Z,94830.91
2018-12-23T06:41:44.414Z,94819.98
2018-12-23T06:44:11.989Z,94817.77
2018-12-23T06:46:40.779Z,94820.63
2018-12-23T06:49:08.543Z,94823.88
2018-12-23T06:51:38.044Z,94834.46
2018-12-23T06:54:05.691Z,94848.05
2018-12-23T06:56:33.383Z,94852.70
2018-12-23T06:59:00.964Z,94850.80
2018-12-23T07:01:29.480Z,94860.06
2018-12-23T07:03:57.090Z,94857.36
2018-12-23T07:06:24.740Z,94857.72
2018-12-23T07:08:57.022Z,94855.59
2018-12-23T07:11:24.766Z,94862.96
2018-12-23T07:13:52.433Z,94870.29
2018-12-23T07:16:20.146Z,94864.98
2018-12-23T07:18:47.978Z,94843.67
2018-12-23T07:21:15.681Z,94850.44
2018-12-23T07:23:43.308Z,94848.86
2018-12-23T07:26:11.031Z,94849.19
2018-12-23T07:28:38.639Z,94855.78
2018-12-23T07:31:06.384Z,94861.05
2018-12-23T07:33:37.352Z,94864.90
2018-12-23T07:36:05.036Z,94862.96
2018-12-23T07:38:33.025Z,94877.06
2018-12-23T07:41:00.705Z,94881.20
2018-12-23T07:43:28.426Z,94889.37
2018-12-23T07:45:56.128Z,94887.28
2018-12-23T07:48:23.847Z,94897.23
2018-12-23T07:50:53.653Z,94894.86
2018-12-23T07:53:21.409Z,94903.03
2018-12-23T07:55:49.053Z,94906.31
2018-12-23T07:58:16.764Z,94910.02
2018-12-23T08:00:45.992Z,94903.28
2018-12-23T08:03:13.929Z,94898.80
2018-12-23T08:05:41.625Z,94902.83
2018-12-23T08:08:09.270Z,94911.18
2018-12-23T08:10:36.997Z,94919.02
2018-12-23T08:13:04.585Z,94922.25
2018-12-23T08:15:34.968Z,94920.84
2018-12-23T08:18:02.573Z,94927.41
2018-12-23T08:20:31.575Z,94929.17
2018-12-23T08:22:59.216Z,94934.80
2018-12-23T08:25:35.373Z,94915.59
2018-12-23T08:27:57.234Z,94908.34
2018-12-23T08:30:25.294Z,94899.34
2018-12-23T08:32:53.045Z,94900.95
2018-12-23T08:35:20.695Z,94906.31
2018-12-23T08:37:48.508Z,94911.33
2018-12-23T08:40:16.163Z,94905.42
2018-12-23T08:42:44.980Z,94911.02
2018-12-23T08:45:12.727Z,94916.19
2018-12-23T08:47:42.340Z,94921.34
2018-12-23T08:50:10.157Z,94915.45
2018-12-23T08:52:38.650Z,94920.09
2018-12-23T08:55:06.481Z,94915.94
2018-12-23T08:57:35.409Z,94886.04
2018-12-23T09:00:04.225Z,94906.16
2018-12-23T09:02:32.003Z,94911.31
2018-12-23T09:04:59.786Z,94896.43
2018-12-23T09:07:31.682Z,94892.95
2018-12-23T09:09:59.449Z,94896.15
2018-12-23T09:12:29.022Z,94891.31
2018-12-23T09:14:56.799Z,94895.61
2018-12-23T09:17:24.509Z,94885.56
2018-12-23T09:19:53.169Z,94883.65
2018-12-23T09:22:20.875Z,94870.48
2018-12-23T09:24:48.538Z,94867.29
2018-12-23T09:27:17.550Z,94857.66
2018-12-23T09:29:45.265Z,94862.00
2018-12-23T09:32:12.920Z,94846.59
2018-12-23T09:34:40.795Z,94848.51
2018-12-23T09:37:08.398Z,94851.40
2018-12-23T09:39:36.139Z,94854.78
2018-12-23T09:42:04.101Z,94847.06
2018-12-23T09:44:31.841Z,94846.10
2018-12-23T09:46:59.528Z,94842.22
2018-12-23T09:49:27.389Z,94839.84
2018-12-23T09:51:54.978Z,94838.72
2018-12-23T09:54:22.824Z,94835.17
2018-12-23T09:56:50.419Z,94831.34
2018-12-23T09:59:18.122Z,94833.87
2018-12-23T10:01:45.949Z,94826.19
2018-12-23T10:04:13.668Z,94817.20
2018-12-23T10:06:41.379Z,94825.06
2018-12-23T10:09:09.204Z,94804.03
2018-12-23T10:11:36.897Z,94800.11
2018-12-23T10:14:04.534Z,94798.98
2018-12-23T10:16:32.270Z,94802.30
2018-12-23T10:19:00.887Z,94789.23
2018-12-23T10:21:28.628Z,94809.65
2018-12-23T10:23:56.219Z,94795.16
2018-12-23T10:26:23.941Z,94796.06
2018-12-23T10:28:51.648Z,94786.19
2018-12-23T10:31:19.413Z,94777.95
2018-12-23T10:33:47.598Z,94770.42
2018-12-23T10:36:15.240Z,94779.92
2018-12-23T10:38:42.858Z,94767.77
2018-12-23T10:41:10.539Z,94767.48
2018-12-23T10:43:38.816Z,94761.82
2018-12-23T10:46:06.623Z,94766.49
2018-12-23T10:48:34.425Z,94760.47
2018-12-23T10:51:02.232Z,94755.89
2018-12-23T10:53:30.017Z,94749.18
2018-12-23T10:55:57.668Z,94743.41
2018-12-23T10:58:25.318Z,94742.33
2018-12-23T11:00:53.111Z,94739.68
2018-12-23T11:03:20.900Z,94736.52
2018-12-23T11:05:48.567Z,94733.48
2018-12-23T11:08:16.253Z,94720.98
2018-12-23T11:10:43.960Z,94722.16
2018-12-23T11:13:11.613Z,94711.05
2018-12-23T11:15:39.271Z,94710.10
2018-12-23T11:18:06.959Z,94705.13
2018-12-23T11:20:34.742Z,94698.94
2018-12-23T11:23:02.579Z,94704.72
2018-12-23T11:25:30.298Z,94700.62
2018-12-23T11:27:58.013Z,94697.91
2018-12-23T11:30:26.071Z,94686.55
2018-12-23T11:32:53.941Z,94683.82
2018-12-23T11:35:22.961Z,94685.17
2018-12-23T11:37:50.655Z,94676.47
2018-12-23T11:40:18.570Z,94676.52
2018-12-23T11:42:46.336Z,94689.17
2018-12-23T11:45:14.115Z,94689.98
2018-12-23T11:47:42.189Z,94684.42
2018-12-23T11:50:10.032Z,94676.95
2018-12-23T11:52:37.800Z,94678.85
2018-12-23T11:55:05.502Z,94680.39
2018-12-23T11:57:33.158Z,94685.75
2018-12-23T12:00:01.004Z,94681.55
2018-12-23T12:02:28.856Z,94677.83
2018-12-23T12:04:56.536Z,94667.90
2018-12-23T12:07:24.803Z,94667.70
2018-12-23T12:09:52.424Z,94664.55
2018-12-23T12:12:20.399Z,94668.20
2018-12-23T12:14:47.987Z,94662.93
2018-12-23T12:17:15.626Z,94659.61
2018-12-23T12:19:43.610Z,94656.88
2018-12-23T12:22:11.415Z,94650.92
2018-12-23T12:24:39.055Z,94645.98
2018-12-23T12:27:06.752Z,94647.27
2018-12-23T12:29:34.366Z,94641.20
2018-12-23T12:32:01.959Z,94644.43
2018-12-23T12:34:29.667Z,94634.08
2018-12-23T12:36:58.442Z,94640.52
2018-12-23T12:39:26.250Z,94639.54
2018-12-23T12:41:54.023Z,94641.68
2018-12-23T12:44:22.143Z,94635.56
2018-12-23T12:46:49.878Z,94631.01
2018-12-23T12:49:18.637Z,94619.13
2018-12-23T12:51:46.712Z,94618.59
2018-12-23T12:54:14.586Z,94616.06
2018-12-23T12:56:44.274Z,94618.09
2018-12-23T12:59:12.957Z,94605.88
2018-12-23T13:01:41.044Z,94605.73
2018-12-23T13:04:08.734Z,94604.00
2018-12-23T13:06:36.595Z,94608.63
2018-12-23T13:09:05.785Z,94610.86
2018-12-23T13:11:33.902Z,94604.45
2018-12-23T13:14:01.599Z,94600.38
2018-12-23T13:16:29.765Z,94599.66
2018-12-23T13:18:57.490Z,94600.09
2018-12-23T13:21:25.088Z,94588.17
2018-12-23T13:23:52.783Z,94598.47
2018-12-23T13:26:20.531Z,94597.67
2018-12-23T13:28:48.530Z,94593.09
2018-12-23T13:31:16.506Z,94585.83
2018-12-23T13:33:44.635Z,94588.14
2018-12-23T13:36:13.462Z,94590.09
2018-12-23T13:38:42.301Z,94583.07
2018-12-23T13:41:17.086Z,94584.05
2018-12-23T13:48:06.228Z,94578.88
2018-12-23T13:51:13.655Z,94593.05
2018-12-23T13:54:21.100Z,94595.18
2018-12-23T14:00:29.681Z,94574.37
2018-12-23T14:03:37.304Z,94569.86
2018-12-23T14:06:44.732Z,94567.05
2018-12-23T14:09:52.277Z,94569.41
2018-12-23T14:12:21.159Z,94572.14
2018-12-23T14:14:49.923Z,94561.00
2018-12-23T14:17:18.776Z,94556.05
2018-12-23T14:22:36.849Z,94555.73
2018-12-23T14:25:45.558Z,94550.33
2018-12-23T14:28:15.467Z,94544.49
2018-12-23T14:30:44.355Z,94544.49
2018-12-23T14:33:13.222Z,94540.46
2018-12-23T14:35:42.036Z,94535.97
2018-12-23T14:38:10.920Z,94527.02
2018-12-23T14:40:39.739Z,94527.39
2018-12-23T14:43:08.696Z,94531.28
2018-12-23T14:45:37.538Z,94534.59
2018-12-23T14:48:06.324Z,94529.80
2018-12-23T14:50:35.168Z,94527.59
2018-12-23T14:53:04.044Z,94521.30
2018-12-23T14:55:32.925Z,94520.76
2018-12-23T14:58:01.731Z,94515.52
2018-12-23T15:00:30.595Z,94513.27
2018-12-23T15:02:59.587Z,94510.83
2018-12-23T15:05:28.442Z,94513.25
2018-12-23T15:07:57.287Z,94507.75
2018-12-23T15:10:26.077Z,94500.48
2018-12-23T15:12:55.382Z,94495.25
2018-12-23T15:15:24.304Z,94489.36
2018-12-23T15:17:53.120Z,94490.81
2018-12-23T15:20:21.964Z,94494.42
2018-12-23T15:22:50.890Z,94488.27
2018-12-23T15:25:19.643Z,94497.47
2018-12-23T15:27:50.459Z,94484.22
2018-12-23T15:30:19.471Z,94488.58
2018-12-23T15:32:48.341Z,94481.16
2018-12-23T15:35:17.404Z,94484.77
2018-12-23T15:37:46.327Z,94470.96
2018-12-23T15:43:03.069Z,94462.43
2018-12-23T15:45:31.788Z,94457.34
2018-12-23T15:48:00.849Z,94463.61
2018-12-23T15:51:09.688Z,94467.52
2018-12-23T15:53:57.948Z,94470.58
2018-12-23T15:56:26.831Z,94463.34
2018-12-23T16:01:50.614Z,94462.14
2018-12-23T16:10:02.027Z,94457.51
2018-12-23T16:12:31.214Z,94456.44
2018-12-23T16:15:00.400Z,94458.70
2018-12-23T16:23:13.169Z,94457.33
2018-12-23T16:25:45.143Z,94449.64
2018-12-23T16:28:14.066Z,94451.58
2018-12-23T16:30:42.989Z,94449.64
2018-12-23T16:33:11.759Z,94447.06
2018-12-23T16:35:40.567Z,94448.67
2018-12-23T16:38:09.456Z,94439.44
2018-12-23T16:40:38.302Z,94431.09
2018-12-23T16:43:07.175Z,94426.12
2018-12-23T16:45:38.198Z,94421.14
2018-12-23T16:48:07.043Z,94416.02
2018-12-23T16:50:55.517Z,94412.17
2018-12-23T16:53:24.428Z,94414.58
2018-12-23T16:55:53.265Z,94406.87
2018-12-23T16:58:22.221Z,94399.66
2018-12-23T17:03:38.560Z,94389.88
2018-12-23T17:06:07.457Z,94393.66
2018-12-23T17:08:36.224Z,94392.11
2018-12-23T17:11:05.220Z,94386.45
2018-12-23T17:13:48.368Z,94390.03
2018-12-23T17:16:04.740Z,94385.05
2018-12-23T17:18:53.320Z,94386.81
2018-12-23T17:24:11.309Z,94376.58
2018-12-23T17:26:40.057Z,94365.76
2018-12-23T17:29:08.941Z,94366.23
2018-12-23T17:31:37.891Z,94358.27
2018-12-23T17:34:19.347Z,94355.83
2018-12-23T17:36:48.137Z,94352.17
2018-12-23T17:39:16.972Z,94346.84
2018-12-23T17:41:45.861Z,94337.20
2018-12-23T17:44:29.326Z,94332.54
2018-12-23T17:46:45.263Z,94334.61
2018-12-23T17:49:14.290Z,94330.76
2018-12-23T17:51:43.404Z,94326.92
2018-12-23T17:57:20.504Z,94312.88
2018-12-23T17:59:49.260Z,94318.67
2018-12-23T18:02:37.307Z,94311.77
2018-12-23T18:08:07.506Z,94315.46
2018-12-23T18:10:36.233Z,94308.73
2018-12-23T18:13:19.464Z,94316.74
2018-12-23T18:18:13.510Z,94312.88
2018-12-23T18:20:42.356Z,94314.97
2018-12-23T18:23:11.452Z,94313.97
2018-12-23T18:25:40.239Z,94316.84
2018-12-23T18:28:09.161Z,94302.88
2018-12-23T18:36:08.245Z,94300.33
2018-12-23T18:38:37.132Z,94294.30
2018-12-23T18:41:06.052Z,94286.74
2018-12-23T18:43:34.833Z,94285.55
2018-12-23T18:46:45.091Z,94279.94
2018-12-23T18:49:14.176Z,94278.16
2018-12-23T18:51:42.889Z,94271.28
2018-12-23T18:54:11.648Z,94267.27
2018-12-23T18:56:40.509Z,94264.53
2018-12-23T18:59:09.252Z,94256.69
2018-12-23T19:01:38.126Z,94249.14
2018-12-23T19:07:13.360Z,94247.86
2018-12-23T19:13:46.959Z,94235.55
2018-12-23T19:19:44.572Z,94227.85
2018-12-23T19:22:51.992Z,94219.50
2018-12-23T19:26:00.681Z,94217.27
2018-12-23T19:32:21.652Z,94213.70
2018-12-23T19:35:29.073Z,94200.35
2018-12-23T19:38:36.497Z,94206.78
2018-12-23T19:41:43.912Z,94197.13
2018-12-23T19:44:52.560Z,94201.59
2018-12-23T19:51:13.742Z,94196.31
2018-12-23T19:54:22.376Z,94193.05
2018-12-23T19:57:34.338Z,94193.92
2018-12-23T20:00:42.060Z,94187.50
2018-12-23T20:04:08.214Z,94194.06
2018-12-23T20:07:03.321Z,94194.86
2018-12-23T20:13:11.373Z,94189.42
2018-12-23T20:16:18.713Z,94183.00
2018-12-23T20:19:27.433Z,94179.64
2018-12-23T20:22:34.771Z,94183.97
2018-12-23T20:25:42.266Z,94172.26
2018-12-23T20:28:49.590Z,94170.98
2018-12-23T20:31:57.087Z,94163.22
2018-12-23T20:35:04.489Z,94163.22
2018-12-23T20:38:13.330Z,94158.41
2018-12-23T20:41:20.939Z,94155.65
2018-12-23T20:47:29.016Z,94146.70
2018-12-23T20:50:50.553Z,94133.20
2018-12-23T20:53:47.522Z,94138.00
2018-12-23T21:03:11.148Z,94125.22
2018-12-23T21:16:11.719Z,94097.31
2018-12-23T21:25:11.118Z,94087.31
2018-12-23T21:28:13.756Z,94088.42
2018-12-23T21:31:22.500Z,94093.87
2018-12-23T21:40:31.297Z,94082.06
2018-12-23T21:43:38.669Z,94086.56
2018-12-23T21:49:46.998Z,94082.70
2018-12-23T21:52:54.398Z,94078.02
2018-12-23T22:02:16.386Z,94066.98
2018-12-23T22:05:25.029Z,94055.62
2018-12-23T22:08:32.443Z,94058.95
2018-12-23T22:11:39.897Z,94055.36
2018-12-23T22:14:08.684Z,94054.42
2018-12-23T22:19:13.082Z,94036.97
2018-12-23T22:21:41.996Z,94023.10
2018-12-23T22:24:10.784Z,94015.69
2018-12-23T22:29:47.790Z,94022.69
2018-12-23T22:32:35.840Z,94020.97
2018-12-23T22:35:07.668Z,94009.52
2018-12-23T22:37:51.126Z,94001.89
2018-12-23T22:43:07.667Z,94003.97
2018-12-23T22:45:36.464Z,93991.73
2018-12-23T22:48:05.300Z,93991.60
2018-12-23T22:50:34.101Z,93988.72
2018-12-23T22:53:36.669Z,93975.66
2018-12-23T22:55:52.477Z,93974.78
2018-12-23T22:58:21.412Z,93962.55
2018-12-23T23:04:05.786Z,93952.33
2018-12-23T23:06:34.588Z,93955.59
2018-12-23T23:11:38.843Z,93949.20
2018-12-23T23:14:47.460Z,93927.78
2018-12-23T23:19:54.431Z,93923.66
2018-12-23T23:22:23.177Z,93908.14
2018-12-23T23:24:51.963Z,93909.06
2018-12-23T23:27:20.784Z,93887.13
2018-12-23T23:29:49.581Z,93883.14
2018-12-23T23:32:18.298Z,93873.02
2018-12-23T23:34:58.983Z,93864.00
2018-12-23T23:37:17.599Z,93867.67
2018-12-23T23:39:46.337Z,93849.81
2018-12-23T23:42:15.104Z,93845.53
2018-12-23T23:44:43.923Z,93840.22
2018-12-23T23:47:12.636Z,93840.13
2018-12-23T23:49:56.157Z,93835.13
2018-12-23T23:52:12.018Z,93825.36
2018-12-23T23:54:40.777Z,93812.97
2018-12-23T23:59:59.640Z,93809.66
